High Point, New Jersey
Current Conditions -  °F | °C
As of 5:53 PM on Tuesday 25 Nov 2014 (Local Time) from KFWN Reporting Station
Clear Clear  
Wind Chill: 43°   Ceiling: Unl
Heat Index: 43°   Visibility: 10mi
Dew Point: 29°   Wind: 3mph
Humidity: 58%   Direction: 240°WSW
Pressure: 30.03"   Gusts: NA
Location:  41.2395°N, 74.6087°W
Report Text: KFWN 252253Z AUTO 24003KT 10SM CLR 06/M02 A3003 RMK AO2 SLP170 T00611017
Loading
Personal Weather Stations






























Interactive Weather Map New forecast layout! Learn more

10-Day Weather Forecast

Advertisements
Track Severe Weather on mobile